Time;durP1;ratioP1;P1;durP2;ratioP2;P2;SDS_P1;SDS_P2;PMS_P1;PMS_P2;Temp;Humidity;BMP_temperature;BMP_pressure;BME280_temperature;BME280_humidity;BME280_pressure;Samples;Min_cycle;Max_cycle;Signal;HPM_P1;HPM_P2
2022/11/22 00:02:07;;;;;;;2.05;1.00;;;;;;;;;;5061490;28;20024;-87
2022/11/22 00:04:32;;;;;;;0.82;0.80;;;;;;;;;;5074452;28;20021;-87
2022/11/22 00:06:58;;;;;;;1.73;1.38;;;;;;;;;;5075175;28;20024;-86
2022/11/22 00:09:23;;;;;;;2.30;1.15;;;;;;;;;;5075475;28;20055;-87
2022/11/22 00:11:48;;;;;;;1.48;1.38;;;;;;;;;;5063266;28;20033;-87
2022/11/22 00:14:14;;;;;;;2.05;1.75;;;;;;;;;;5064731;28;20508;-86
2022/11/22 00:16:39;;;;;;;2.50;2.03;;;;;;;;;;5074754;28;20029;-87
2022/11/22 00:19:05;;;;;;;4.63;2.88;;;;;;;;;;5066842;28;20138;-86
2022/11/22 00:21:30;;;;;;;5.20;2.72;;;;;;;;;;5074934;28;20061;-85
2022/11/22 00:23:57;;;;;;;1.92;1.30;;;;;;;;;;5063294;28;20039;-86
2022/11/22 00:26:23;;;;;;;3.28;1.67;;;;;;;;;;5074771;28;20021;-86
2022/11/22 00:28:49;;;;;;;2.13;1.40;;;;;;;;;;5060197;28;20090;-86
2022/11/22 00:31:14;;;;;;;2.53;1.70;;;;;;;;;;5062021;28;20029;-87
2022/11/22 00:33:40;;;;;;;0.93;0.93;;;;;;;;;;5073841;28;20415;-86
2022/11/22 00:36:05;;;;;;;2.20;1.42;;;;;;;;;;5074030;28;20494;-85
2022/11/22 00:38:31;;;;;;;1.63;1.38;;;;;;;;;;5073250;28;20381;-85
2022/11/22 00:40:56;;;;;;;1.88;1.27;;;;;;;;;;5065411;28;20465;-86
2022/11/22 00:43:21;;;;;;;0.55;0.55;;;;;;;;;;5073619;28;20020;-86
2022/11/22 00:45:47;;;;;;;1.90;1.38;;;;;;;;;;5071982;28;20045;-85
2022/11/22 00:48:12;;;;;;;0.85;0.75;;;;;;;;;;5062097;28;20024;-86
2022/11/22 00:50:38;;;;;;;0.90;0.90;;;;;;;;;;5073306;28;20028;-87
2022/11/22 00:53:03;;;;;;;1.58;1.45;;;;;;;;;;5067106;28;20111;-87
2022/11/22 00:55:29;;;;;;;1.88;1.40;;;;;;;;;;5064652;28;20602;-87
2022/11/22 00:57:54;;;;;;;0.32;0.32;;;;;;;;;;5064528;28;20028;-87
2022/11/22 01:00:19;;;;;;;1.70;1.38;;;;;;;;;;5064587;28;20035;-87
2022/11/22 01:02:45;;;;;;;1.55;1.25;;;;;;;;;;5065499;28;20384;-86
2022/11/22 01:05:10;;;;;;;1.13;1.02;;;;;;;;;;5063392;28;20473;-86
2022/11/22 01:07:36;;;;;;;1.27;0.95;;;;;;;;;;5066136;28;20035;-87
2022/11/22 01:10:01;;;;;;;1.23;1.05;;;;;;;;;;5073732;28;20086;-86
2022/11/22 01:12:26;;;;;;;3.10;1.70;;;;;;;;;;5063050;28;20020;-86
2022/11/22 01:14:52;;;;;;;0.98;0.65;;;;;;;;;;5073919;28;20491;-87
2022/11/22 01:17:17;;;;;;;0.98;0.90;;;;;;;;;;5074415;28;20035;-86
2022/11/22 01:19:43;;;;;;;1.42;1.33;;;;;;;;;;5065571;28;20016;-86
2022/11/22 01:22:08;;;;;;;2.22;1.13;;;;;;;;;;5073400;28;20032;-86
2022/11/22 01:24:33;;;;;;;0.90;0.65;;;;;;;;;;5072593;28;20111;-85
2022/11/22 01:26:59;;;;;;;1.13;0.98;;;;;;;;;;5059758;28;20036;-86
2022/11/22 01:29:24;;;;;;;1.08;1.02;;;;;;;;;;5073803;28;20376;-85
2022/11/22 01:31:50;;;;;;;1.15;0.88;;;;;;;;;;5066580;28;20028;-85
2022/11/22 01:34:15;;;;;;;1.80;0.80;;;;;;;;;;5073478;28;20032;-85
2022/11/22 01:36:40;;;;;;;1.05;0.85;;;;;;;;;;5073755;28;20349;-85
2022/11/22 01:39:06;;;;;;;1.05;0.93;;;;;;;;;;5073289;28;20107;-85
2022/11/22 01:41:31;;;;;;;2.00;0.98;;;;;;;;;;5065792;28;20459;-85
2022/11/22 01:43:56;;;;;;;1.23;0.75;;;;;;;;;;5073286;28;20086;-85
2022/11/22 01:46:25;;;;;;;1.85;1.15;;;;;;;;;;5072937;28;20045;-85
2022/11/22 01:49:00;;;;;;;1.63;1.30;;;;;;;;;;5073006;28;20473;-85
2022/11/22 01:51:37;;;;;;;0.93;0.93;;;;;;;;;;5074171;28;20035;-87
2022/11/22 01:54:08;;;;;;;0.90;0.85;;;;;;;;;;5059471;28;20379;-86
2022/11/22 01:56:35;;;;;;;0.60;0.60;;;;;;;;;;5061255;28;20024;-86
2022/11/22 01:59:03;;;;;;;1.85;1.42;;;;;;;;;;5073817;28;20120;-86
2022/11/22 02:01:29;;;;;;;2.22;2.03;;;;;;;;;;5073714;28;20418;-86
2022/11/22 02:03:56;;;;;;;1.95;1.20;;;;;;;;;;5062711;28;20034;-87
2022/11/22 02:06:27;;;;;;;3.05;1.63;;;;;;;;;;5066246;28;20021;-86
2022/11/22 02:08:58;;;;;;;0.50;0.50;;;;;;;;;;5073103;28;20028;-87
2022/11/22 02:11:25;;;;;;;3.03;1.58;;;;;;;;;;5073100;28;20093;-87
2022/11/22 02:13:52;;;;;;;2.03;1.33;;;;;;;;;;5073012;28;20503;-87
2022/11/22 02:16:18;;;;;;;4.63;2.25;;;;;;;;;;5064408;28;20059;-87
2022/11/22 02:18:43;;;;;;;4.70;3.15;;;;;;;;;;5054112;28;20473;-87
2022/11/22 02:21:09;;;;;;;1.55;1.25;;;;;;;;;;5071679;28;20020;-87
2022/11/22 02:24:01;;;;;;;2.00;1.15;;;;;;;;;;5064304;28;20031;-85
2022/11/22 02:26:28;;;;;;;1.70;0.98;;;;;;;;;;5064748;28;20404;-86
2022/11/22 02:28:59;;;;;;;2.22;0.77;;;;;;;;;;5073346;28;20447;-86
2022/11/22 02:31:37;;;;;;;4.00;1.42;;;;;;;;;;5072348;28;20031;-85
2022/11/22 02:34:02;;;;;;;0.75;0.75;;;;;;;;;;5073740;28;20481;-86
2022/11/22 02:36:34;;;;;;;2.38;1.40;;;;;;;;;;5073058;28;20020;-86
2022/11/22 02:38:59;;;;;;;1.30;1.10;;;;;;;;;;5064313;28;20032;-86
2022/11/22 02:41:25;;;;;;;0.85;0.80;;;;;;;;;;5072308;28;20024;-86
2022/11/22 02:43:51;;;;;;;1.05;0.98;;;;;;;;;;5060338;28;20017;-86
2022/11/22 02:46:19;;;;;;;0.65;0.63;;;;;;;;;;5066548;28;20035;-87
2022/11/22 02:48:45;;;;;;;0.98;0.90;;;;;;;;;;5072171;28;20032;-86
2022/11/22 02:51:15;;;;;;;1.27;1.00;;;;;;;;;;5072522;28;20470;-86
2022/11/22 02:53:42;;;;;;;1.60;1.20;;;;;;;;;;5095600;28;20469;-86
2022/11/22 02:56:07;;;;;;;0.65;0.65;;;;;;;;;;5064875;28;20029;-88
2022/11/22 02:58:33;;;;;;;0.40;0.40;;;;;;;;;;5066995;28;20028;-87
2022/11/22 03:00:58;;;;;;;2.17;0.88;;;;;;;;;;5060212;28;20024;-87
2022/11/22 03:03:24;;;;;;;1.15;0.75;;;;;;;;;;5070192;28;20028;-88
2022/11/22 03:05:49;;;;;;;2.25;1.42;;;;;;;;;;5067824;28;20074;-87
2022/11/22 03:08:14;;;;;;;0.65;0.60;;;;;;;;;;5075948;28;20025;-87
2022/11/22 03:10:40;;;;;;;0.55;0.55;;;;;;;;;;5077152;28;20050;-86
2022/11/22 03:13:05;;;;;;;1.20;1.05;;;;;;;;;;5077156;28;20055;-87
2022/11/22 03:15:31;;;;;;;1.95;1.20;;;;;;;;;;5077445;28;20059;-87
2022/11/22 03:17:58;;;;;;;5.50;1.15;;;;;;;;;;5077548;28;20460;-87
2022/11/22 03:20:23;;;;;;;1.58;1.45;;;;;;;;;;5062152;28;20380;-87
2022/11/22 03:22:49;;;;;;;1.88;1.55;;;;;;;;;;5077705;28;20033;-87
2022/11/22 03:25:14;;;;;;;1.25;1.10;;;;;;;;;;5071925;28;20537;-87
2022/11/22 03:27:39;;;;;;;2.38;1.27;;;;;;;;;;5070383;28;20028;-87
2022/11/22 03:30:05;;;;;;;2.00;1.30;;;;;;;;;;5068817;28;20035;-86
2022/11/22 03:32:31;;;;;;;1.65;1.50;;;;;;;;;;5077326;28;20048;-86
2022/11/22 03:34:56;;;;;;;1.13;0.88;;;;;;;;;;5062024;28;20033;-87
2022/11/22 03:37:22;;;;;;;0.73;0.73;;;;;;;;;;5077432;28;20535;-87
2022/11/22 03:39:47;;;;;;;0.85;0.85;;;;;;;;;;5077376;28;20031;-87
2022/11/22 03:42:13;;;;;;;0.93;0.90;;;;;;;;;;5063604;28;20422;-87
2022/11/22 03:44:38;;;;;;;0.88;0.73;;;;;;;;;;5076629;28;20045;-86
2022/11/22 03:47:03;;;;;;;0.50;0.50;;;;;;;;;;5076811;28;20132;-87
2022/11/22 03:49:29;;;;;;;0.50;0.50;;;;;;;;;;5063972;28;20029;-86
2022/11/22 03:51:54;;;;;;;1.05;0.95;;;;;;;;;;5076921;28;20039;-87
2022/11/22 03:54:19;;;;;;;1.10;1.00;;;;;;;;;;5065400;28;20073;-87
2022/11/22 03:56:45;;;;;;;1.23;0.88;;;;;;;;;;5073223;28;20392;-87
2022/11/22 03:59:10;;;;;;;0.80;0.47;;;;;;;;;;5076458;28;20028;-87
2022/11/22 04:01:36;;;;;;;0.73;0.73;;;;;;;;;;5073800;28;20492;-86
2022/11/22 04:04:01;;;;;;;1.20;1.10;;;;;;;;;;5068443;28;20044;-87
2022/11/22 04:06:27;;;;;;;1.08;0.95;;;;;;;;;;5103598;28;20353;-87
2022/11/22 04:08:52;;;;;;;2.00;0.65;;;;;;;;;;5076342;28;20067;-87
2022/11/22 04:11:17;;;;;;;1.80;1.45;;;;;;;;;;5064621;28;20396;-87
2022/11/22 04:16:27;;;;;;;1.63;1.42;;;;;;;;;;5074672;28;20034;-87
2022/11/22 04:18:52;;;;;;;2.05;1.80;;;;;;;;;;5065994;28;20024;-85
2022/11/22 04:21:33;;;;;;;0.68;0.68;;;;;;;;;;5076431;28;20468;-86
2022/11/22 04:26:47;;;;;;;0.40;0.40;;;;;;;;;;5072943;28;20082;-86
2022/11/22 04:29:14;;;;;;;1.30;0.45;;;;;;;;;;5094395;28;20021;-87
2022/11/22 04:34:23;;;;;;;0.80;0.80;;;;;;;;;;5076159;28;20060;-87
2022/11/22 04:36:49;;;;;;;0.80;0.65;;;;;;;;;;5069236;28;20028;-87
2022/11/22 04:39:14;;;;;;;2.20;1.70;;;;;;;;;;5067628;28;20024;-86
2022/11/22 04:41:39;;;;;;;2.35;1.27;;;;;;;;;;5066091;28;20024;-86
2022/11/22 04:46:49;;;;;;;1.40;1.02;;;;;;;;;;5075516;28;20038;-86
2022/11/22 04:49:14;;;;;;;0.93;0.80;;;;;;;;;;5064566;28;20028;-87
2022/11/22 04:54:24;;;;;;;1.35;1.15;;;;;;;;;;5072071;28;20078;-86
2022/11/22 04:56:49;;;;;;;0.93;0.88;;;;;;;;;;5065017;28;20025;-85
2022/11/22 04:59:14;;;;;;;1.80;1.17;;;;;;;;;;5063409;28;20396;-86
2022/11/22 05:01:40;;;;;;;1.00;0.90;;;;;;;;;;5064921;28;20020;-86
2022/11/22 05:04:05;;;;;;;1.17;0.95;;;;;;;;;;5067730;28;20032;-86
2022/11/22 05:06:30;;;;;;;0.65;0.50;;;;;;;;;;5073770;28;20047;-87
2022/11/22 05:08:56;;;;;;;1.50;1.13;;;;;;;;;;5073501;28;20028;-86
2022/11/22 05:11:21;;;;;;;0.70;0.70;;;;;;;;;;5098463;28;20028;-86
2022/11/22 05:13:47;;;;;;;1.23;1.10;;;;;;;;;;5065097;28;20699;-86
2022/11/22 05:16:14;;;;;;;0.40;0.40;;;;;;;;;;5074834;28;20119;-86
2022/11/22 05:18:40;;;;;;;0.77;0.70;;;;;;;;;;5073201;28;20404;-87
2022/11/22 05:21:10;;;;;;;0.82;0.80;;;;;;;;;;5065865;28;20054;-87
2022/11/22 05:23:54;;;;;;;1.58;0.98;;;;;;;;;;5065475;28;20035;-84
2022/11/22 05:26:49;;;;;;;0.88;0.65;;;;;;;;;;5070321;28;20078;-83
2022/11/22 05:29:14;;;;;;;2.65;1.90;;;;;;;;;;5064441;28;20036;-83
2022/11/22 05:31:41;;;;;;;1.45;1.20;;;;;;;;;;5073162;28;20380;-85
2022/11/22 05:34:06;;;;;;;1.92;1.02;;;;;;;;;;5073462;28;20035;-87
2022/11/22 05:36:33;;;;;;;1.60;1.15;;;;;;;;;;5073194;28;20020;-84
2022/11/22 05:38:59;;;;;;;4.75;3.10;;;;;;;;;;5071990;28;20141;-84
2022/11/22 05:41:25;;;;;;;2.35;1.10;;;;;;;;;;5056194;28;20032;-86
2022/11/22 05:43:52;;;;;;;0.75;0.75;;;;;;;;;;5063452;28;20028;-86
2022/11/22 05:46:20;;;;;;;2.42;0.60;;;;;;;;;;5071696;28;20255;-86
2022/11/22 05:48:46;;;;;;;1.25;0.80;;;;;;;;;;5069512;28;20032;-87
2022/11/22 05:51:14;;;;;;;0.43;0.43;;;;;;;;;;5061666;28;20028;-84
2022/11/22 05:53:40;;;;;;;0.55;0.55;;;;;;;;;;5071797;28;20491;-85
2022/11/22 05:56:07;;;;;;;1.00;0.80;;;;;;;;;;5096682;28;20086;-84
2022/11/22 05:58:33;;;;;;;1.33;1.08;;;;;;;;;;5071841;28;20051;-85
2022/11/22 06:01:06;;;;;;;2.25;1.40;;;;;;;;;;5064595;28;20044;-88
2022/11/22 06:03:32;;;;;;;3.47;2.70;;;;;;;;;;5060590;28;20024;-86
2022/11/22 06:05:58;;;;;;;3.78;1.92;;;;;;;;;;5071853;28;20073;-85
2022/11/22 06:08:23;;;;;;;3.45;2.63;;;;;;;;;;5066209;28;20024;-85
2022/11/22 06:10:48;;;;;;;4.55;2.42;;;;;;;;;;5063553;28;20159;-86
2022/11/22 06:13:14;;;;;;;3.13;2.15;;;;;;;;;;5071288;28;20047;-84
2022/11/22 06:15:39;;;;;;;2.05;1.60;;;;;;;;;;5071346;28;20039;-86
2022/11/22 06:18:05;;;;;;;2.88;2.42;;;;;;;;;;5071607;28;20033;-86
2022/11/22 06:20:30;;;;;;;3.92;2.63;;;;;;;;;;5071402;28;20436;-85
2022/11/22 06:22:59;;;;;;;1.67;1.25;;;;;;;;;;5071775;28;20034;-83
2022/11/22 06:25:24;;;;;;;9.07;4.78;;;;;;;;;;5091286;28;20118;-85
2022/11/22 06:27:50;;;;;;;3.97;3.00;;;;;;;;;;5063413;28;20381;-85
2022/11/22 06:30:15;;;;;;;7.18;2.17;;;;;;;;;;5072584;28;20027;-84
2022/11/22 06:32:43;;;;;;;3.72;2.00;;;;;;;;;;5075915;28;20056;-85
2022/11/22 06:35:08;;;;;;;8.18;2.88;;;;;;;;;;5063710;28;20024;-85
2022/11/22 06:37:34;;;;;;;6.13;3.30;;;;;;;;;;5064487;28;20388;-86
2022/11/22 06:39:59;;;;;;;10.55;4.93;;;;;;;;;;5076010;28;20028;-86
2022/11/22 06:42:24;;;;;;;5.45;4.28;;;;;;;;;;5075587;28;20603;-85
2022/11/22 06:44:50;;;;;;;6.45;4.35;;;;;;;;;;5075093;28;20055;-84
2022/11/22 06:47:16;;;;;;;3.13;2.53;;;;;;;;;;5065445;28;20020;-85
2022/11/22 06:49:42;;;;;;;3.90;2.17;;;;;;;;;;5075410;28;20028;-84
2022/11/22 06:52:07;;;;;;;1.30;0.85;;;;;;;;;;5067940;28;20033;-86
2022/11/22 06:54:33;;;;;;;4.80;2.55;;;;;;;;;;5059925;28;20031;-85
2022/11/22 06:56:58;;;;;;;0.75;0.75;;;;;;;;;;5075277;28;20030;-83
2022/11/22 06:59:24;;;;;;;2.75;2.35;;;;;;;;;;5075693;28;20017;-83
2022/11/22 07:01:49;;;;;;;4.75;4.18;;;;;;;;;;5060905;28;20020;-85
2022/11/22 07:04:14;;;;;;;3.80;2.78;;;;;;;;;;5065789;28;20039;-86
2022/11/22 07:06:40;;;;;;;4.65;2.40;;;;;;;;;;5062283;28;20078;-86
2022/11/22 07:09:08;;;;;;;4.30;3.63;;;;;;;;;;5074874;28;20028;-85
2022/11/22 07:11:34;;;;;;;2.83;2.33;;;;;;;;;;5064717;28;20056;-85
2022/11/22 07:14:01;;;;;;;3.38;2.25;;;;;;;;;;5066532;28;20028;-84
2022/11/22 07:16:27;;;;;;;4.47;2.40;;;;;;;;;;5074621;28;20039;-84
2022/11/22 07:18:52;;;;;;;2.92;2.63;;;;;;;;;;5074396;28;20020;-85
2022/11/22 07:21:23;;;;;;;7.43;2.97;;;;;;;;;;5074831;28;20364;-85
2022/11/22 07:23:53;;;;;;;4.60;3.20;;;;;;;;;;5067163;28;20472;-84
2022/11/22 07:26:21;;;;;;;3.17;2.72;;;;;;;;;;5056846;28;20424;-88
2022/11/22 07:28:46;;;;;;;3.83;3.03;;;;;;;;;;5063222;28;20111;-85
2022/11/22 07:31:19;;;;;;;3.25;2.33;;;;;;;;;;5074712;28;20113;-88
2022/11/22 07:33:44;;;;;;;1.70;1.58;;;;;;;;;;5074683;28;20024;-85
2022/11/22 07:36:18;;;;;;;3.58;2.53;;;;;;;;;;5074300;28;20028;-83
2022/11/22 07:38:44;;;;;;;4.40;2.38;;;;;;;;;;5068203;28;20039;-86
2022/11/22 07:41:09;;;;;;;4.70;2.80;;;;;;;;;;5058933;28;20062;-85
2022/11/22 07:43:35;;;;;;;3.88;2.10;;;;;;;;;;5072643;28;20519;-83
2022/11/22 07:46:06;;;;;;;4.18;2.63;;;;;;;;;;5061809;28;20052;-84
2022/11/22 07:48:35;;;;;;;2.88;2.42;;;;;;;;;;5072954;28;20036;-88
2022/11/22 07:51:06;;;;;;;3.50;1.70;;;;;;;;;;5066740;28;20479;-84
2022/11/22 07:53:33;;;;;;;2.15;1.77;;;;;;;;;;5060194;28;20028;-87
2022/11/22 07:56:03;;;;;;;4.80;4.00;;;;;;;;;;5074168;28;20674;-84
2022/11/22 07:58:28;;;;;;;;;;;;;;;;;;5073179;28;20020;-84
2022/11/22 08:00:54;;;;;;;3.63;2.70;;;;;;;;;;5073777;28;19966;-85
2022/11/22 08:03:19;;;;;;;18.13;10.60;;;;;;;;;;5073451;28;20036;-84
2022/11/22 08:05:59;;;;;;;20.95;10.15;;;;;;;;;;5058494;28;20024;-88
2022/11/22 08:08:25;;;;;;;21.75;9.90;;;;;;;;;;5060742;28;20032;-84
2022/11/22 08:10:50;;;;;;;8.07;4.57;;;;;;;;;;5061689;28;20032;-85
2022/11/22 08:13:15;;;;;;;5.93;3.72;;;;;;;;;;5073829;28;20024;-85
2022/11/22 08:15:41;;;;;;;5.07;3.13;;;;;;;;;;5060902;28;20021;-84
2022/11/22 08:18:25;;;;;;;4.28;2.65;;;;;;;;;;5072362;28;20499;-85
2022/11/22 08:21:00;;;;;;;2.72;1.83;;;;;;;;;;5074552;28;20032;-84
2022/11/22 08:23:28;;;;;;;2.22;1.70;;;;;;;;;;5075018;28;20020;-85
2022/11/22 08:25:59;;;;;;;2.65;1.77;;;;;;;;;;5072048;28;20465;-87
2022/11/22 08:28:25;;;;;;;2.95;2.03;;;;;;;;;;5066312;28;20025;-86
2022/11/22 08:30:50;;;;;;;3.85;2.35;;;;;;;;;;5073616;28;20222;-83
2022/11/22 08:33:16;;;;;;;2.40;1.75;;;;;;;;;;5074643;28;20036;-84
2022/11/22 08:35:42;;;;;;;1.90;1.48;;;;;;;;;;5074503;28;20023;-83
2022/11/22 08:38:07;;;;;;;3.05;1.92;;;;;;;;;;5071293;28;20043;-84
2022/11/22 08:40:33;;;;;;;2.47;1.77;;;;;;;;;;5075196;28;20029;-85
2022/11/22 08:43:01;;;;;;;2.47;1.95;;;;;;;;;;5069035;28;20078;-84
2022/11/22 08:45:26;;;;;;;2.92;1.98;;;;;;;;;;5065389;28;20119;-84
2022/11/22 08:47:52;;;;;;;4.22;1.90;;;;;;;;;;5061171;28;20078;-84
2022/11/22 08:50:20;;;;;;;2.50;1.92;;;;;;;;;;5075321;28;20032;-84
2022/11/22 08:52:46;;;;;;;3.47;2.47;;;;;;;;;;5072007;28;20024;-86
2022/11/22 08:55:11;;;;;;;5.43;2.80;;;;;;;;;;5065263;28;20020;-85
2022/11/22 08:57:36;;;;;;;5.53;3.60;;;;;;;;;;5075497;28;20430;-85
2022/11/22 09:00:04;;;;;;;5.50;3.30;;;;;;;;;;5065959;28;20378;-85
2022/11/22 09:02:29;;;;;;;7.25;4.50;;;;;;;;;;5065398;28;20032;-84
2022/11/22 09:04:55;;;;;;;6.32;3.95;;;;;;;;;;5075409;28;20035;-84
2022/11/22 09:07:20;;;;;;;5.75;3.40;;;;;;;;;;5064537;28;20111;-84
2022/11/22 09:09:46;;;;;;;7.85;4.38;;;;;;;;;;5074338;28;20487;-82
2022/11/22 09:12:11;;;;;;;4.72;3.78;;;;;;;;;;5073877;28;20040;-84
2022/11/22 09:14:37;;;;;;;6.05;3.85;;;;;;;;;;5093814;28;20265;-83
2022/11/22 09:17:02;;;;;;;12.05;5.95;;;;;;;;;;5061377;28;20040;-82
2022/11/22 09:19:27;;;;;;;7.25;4.80;;;;;;;;;;5060616;28;20460;-82
2022/11/22 09:21:53;;;;;;;11.45;6.22;;;;;;;;;;5072866;28;20107;-83
2022/11/22 09:24:18;;;;;;;8.27;4.57;;;;;;;;;;5062730;28;20024;-85
2022/11/22 09:26:44;;;;;;;4.93;3.70;;;;;;;;;;5065391;28;20384;-83
2022/11/22 09:29:09;;;;;;;6.85;4.32;;;;;;;;;;5072948;28;20016;-85
2022/11/22 09:31:35;;;;;;;13.70;8.10;;;;;;;;;;5059363;28;20472;-83
2022/11/22 09:34:00;;;;;;;11.85;4.65;;;;;;;;;;5072938;28;20035;-83
2022/11/22 09:36:26;;;;;;;6.38;4.13;;;;;;;;;;5068265;28;20071;-83
2022/11/22 09:38:58;;;;;;;5.55;3.35;;;;;;;;;;5060715;28;20470;-84
2022/11/22 09:41:54;;;;;;;4.68;3.15;;;;;;;;;;5071919;28;20032;-83
2022/11/22 09:44:24;;;;;;;3.53;2.97;;;;;;;;;;5071518;28;20432;-83
2022/11/22 09:46:52;;;;;;;;;;;;;;;;;;5071948;28;20028;-83
2022/11/22 09:49:42;;;;;;;2.53;1.80;;;;;;;;;;5071138;28;20010;-85
2022/11/22 09:52:32;;;;;;;3.70;2.15;;;;;;;;;;5070499;28;20133;-86
2022/11/22 09:55:09;;;;;;;3.60;2.20;;;;;;;;;;5058313;28;20071;-83
2022/11/22 09:57:48;;;;;;;2.80;1.67;;;;;;;;;;5086838;28;20030;-83
2022/11/22 10:00:24;;;;;;;2.85;2.30;;;;;;;;;;5090654;28;20364;-83
2022/11/22 10:03:07;;;;;;;2.55;1.98;;;;;;;;;;5061337;28;20028;-84
2022/11/22 10:05:43;;;;;;;2.95;1.77;;;;;;;;;;5087028;28;20016;-84
2022/11/22 10:08:27;;;;;;;2.35;1.23;;;;;;;;;;5063011;28;20500;-85
2022/11/22 10:10:56;;;;;;;2.00;1.80;;;;;;;;;;5094879;28;20481;-81
2022/11/22 10:13:30;;;;;;;0.93;0.80;;;;;;;;;;5062561;28;20034;-82
2022/11/22 10:15:55;;;;;;;2.58;1.88;;;;;;;;;;5085444;28;20073;-83
2022/11/22 10:18:57;;;;;;;3.83;1.77;;;;;;;;;;5060250;28;20112;-84
2022/11/22 10:21:27;;;;;;;4.55;2.25;;;;;;;;;;5060968;28;20045;-84
2022/11/22 10:23:53;;;;;;;3.42;2.00;;;;;;;;;;5089423;28;20423;-83
2022/11/22 10:26:26;;;;;;;2.95;2.15;;;;;;;;;;5060294;28;20093;-82
2022/11/22 10:29:10;;;;;;;3.53;2.35;;;;;;;;;;5082098;28;20419;-82
2022/11/22 10:31:49;;;;;;;4.03;2.85;;;;;;;;;;5067823;28;20487;-83
2022/11/22 10:34:45;;;;;;;6.78;3.10;;;;;;;;;;5070568;28;20082;-81
2022/11/22 10:42:16;;;;;;;3.92;3.05;;;;;;;;;;5077333;28;20399;-82
2022/11/22 10:45:13;;;;;;;4.80;2.92;;;;;;;;;;5074149;28;20132;-83
2022/11/22 10:47:48;;;;;;;3.65;2.25;;;;;;;;;;5071622;28;20055;-82
2022/11/22 10:50:53;;;;;;;4.97;3.75;;;;;;;;;;5078823;28;20021;-82
2022/11/22 10:53:40;;;;;;;4.18;2.90;;;;;;;;;;5065900;28;20036;-84
2022/11/22 10:56:30;;;;;;;2.92;1.83;;;;;;;;;;5076537;28;20055;-86
2022/11/22 10:59:19;;;;;;;6.32;3.08;;;;;;;;;;5076383;28;20875;-84
2022/11/22 11:02:15;;;;;;;3.58;2.28;;;;;;;;;;5075301;28;20111;-84
2022/11/22 11:04:41;;;;;;;3.47;2.38;;;;;;;;;;5075168;28;20032;-84
2022/11/22 11:07:14;;;;;;;3.45;2.70;;;;;;;;;;5076636;28;20033;-86
2022/11/22 11:09:56;;;;;;;5.05;3.00;;;;;;;;;;5078178;28;20058;-86
2022/11/22 11:12:49;;;;;;;4.78;3.38;;;;;;;;;;5073820;28;20024;-87
2022/11/22 11:15:53;;;;;;;6.85;3.28;;;;;;;;;;5073200;28;20103;-87
2022/11/22 11:18:29;;;;;;;4.80;3.05;;;;;;;;;;5026374;28;20034;-87
2022/11/22 11:20:55;;;;;;;3.28;2.15;;;;;;;;;;5068233;28;20032;-82
2022/11/22 11:23:20;;;;;;;3.22;2.53;;;;;;;;;;5073418;28;20040;-86
2022/11/22 11:25:47;;;;;;;4.20;2.80;;;;;;;;;;5064198;28;20020;-85
2022/11/22 11:28:23;;;;;;;3.90;2.83;;;;;;;;;;5072544;28;20052;-86
2022/11/22 11:30:58;;;;;;;2.78;2.33;;;;;;;;;;5076782;28;20684;-84
2022/11/22 11:33:29;;;;;;;4.15;2.90;;;;;;;;;;5071287;28;20054;-84
2022/11/22 11:36:07;;;;;;;9.13;3.38;;;;;;;;;;5074247;28;20025;-86
2022/11/22 11:38:42;;;;;;;3.72;2.47;;;;;;;;;;5071532;28;20361;-84
2022/11/22 11:41:24;;;;;;;6.10;3.67;;;;;;;;;;5069169;28;20048;-84
2022/11/22 11:43:52;;;;;;;5.00;3.05;;;;;;;;;;5071674;28;20029;-85
2022/11/22 11:46:23;;;;;;;3.72;2.78;;;;;;;;;;5079481;28;20024;-85
2022/11/22 11:49:13;;;;;;;4.28;2.78;;;;;;;;;;5075107;28;20032;-84
2022/11/22 11:51:42;;;;;;;4.05;2.65;;;;;;;;;;5070940;28;20465;-86
2022/11/22 11:54:17;;;;;;;2.78;2.20;;;;;;;;;;5064619;28;20477;-85
2022/11/22 11:56:45;;;;;;;3.15;2.33;;;;;;;;;;5061342;28;20025;-86
2022/11/22 11:59:14;;;;;;;7.45;3.58;;;;;;;;;;5062195;28;20020;-85
2022/11/22 12:01:55;;;;;;;4.78;3.10;;;;;;;;;;5066045;28;20044;-86
2022/11/22 12:04:25;;;;;;;3.28;2.22;;;;;;;;;;5063436;28;20029;-86
2022/11/22 12:07:16;;;;;;;2.65;2.15;;;;;;;;;;5061800;28;20044;-84
2022/11/22 12:09:47;;;;;;;8.13;3.20;;;;;;;;;;5062016;28;20056;-85
2022/11/22 12:12:33;;;;;;;4.18;2.80;;;;;;;;;;5059497;28;20033;-87
2022/11/22 12:15:25;;;;;;;4.00;2.60;;;;;;;;;;5064340;28;20107;-87
2022/11/22 12:18:17;;;;;;;2.25;1.52;;;;;;;;;;5059724;28;20393;-85
2022/11/22 12:21:02;;;;;;;1.90;1.40;;;;;;;;;;5056002;28;20030;-87
2022/11/22 12:23:44;;;;;;;0.80;0.70;;;;;;;;;;5058623;28;20028;-85
2022/11/22 12:26:10;;;;;;;1.23;0.77;;;;;;;;;;5063664;28;20031;-88
2022/11/22 12:28:37;;;;;;;0.40;0.40;;;;;;;;;;5063471;28;20025;-91
2022/11/22 12:31:02;;;;;;;0.65;0.60;;;;;;;;;;5063581;28;20024;-88
2022/11/22 12:33:34;;;;;;;1.55;0.63;;;;;;;;;;5064209;28;20033;-90
2022/11/22 12:36:03;;;;;;;0.43;0.43;;;;;;;;;;5060175;28;20033;-87
2022/11/22 12:38:33;;;;;;;0.68;0.50;;;;;;;;;;5063204;28;20035;-86
2022/11/22 12:41:03;;;;;;;2.00;0.50;;;;;;;;;;5063402;28;20037;-87
2022/11/22 12:43:35;;;;;;;0.30;0.30;;;;;;;;;;5060514;28;20111;-86
2022/11/22 12:46:10;;;;;;;1.65;1.45;;;;;;;;;;5064521;28;20029;-87
2022/11/22 12:48:57;;;;;;;6.30;2.60;;;;;;;;;;5054216;28;20074;-89
2022/11/22 12:51:41;;;;;;;8.05;4.60;;;;;;;;;;5060997;28;20036;-89
2022/11/22 12:54:13;;;;;;;5.25;3.38;;;;;;;;;;5054967;28;20492;-88
2022/11/22 12:56:53;;;;;;;7.75;4.50;;;;;;;;;;5060244;28;20029;-86
2022/11/22 12:59:47;;;;;;;4.75;2.85;;;;;;;;;;5058391;28;20056;-89
2022/11/22 13:02:31;;;;;;;5.07;3.75;;;;;;;;;;5067820;28;20472;-89
2022/11/22 13:05:03;;;;;;;8.32;3.75;;;;;;;;;;5059756;28;20480;-88
2022/11/22 13:07:34;;;;;;;5.03;2.70;;;;;;;;;;5057998;28;20028;-87
2022/11/22 13:10:32;;;;;;;4.80;2.83;;;;;;;;;;5060035;28;20052;-87
2022/11/22 13:13:01;;;;;;;5.10;3.60;;;;;;;;;;5060108;28;20068;-89
2022/11/22 13:15:33;;;;;;;6.15;3.67;;;;;;;;;;5055891;28;20029;-86
2022/11/22 13:17:59;;;;;;;5.25;3.53;;;;;;;;;;5062223;28;20099;-88
2022/11/22 13:20:34;;;;;;;6.53;3.58;;;;;;;;;;5061433;28;20025;-85
2022/11/22 13:27:18;;;;;;;;;;;;;;;;;;;;;
2022/11/22 13:30:17;;;;;;;6.35;4.07;;;;;;;;;;5050683;28;20044;-88
2022/11/22 13:32:51;;;;;;;5.43;4.10;;;;;;;;;;5058615;28;20037;-87
2022/11/22 13:35:52;;;;;;;8.80;6.03;;;;;;;;;;5061003;28;20024;-84
2022/11/22 13:38:23;;;;;;;7.82;4.95;;;;;;;;;;5046192;28;20044;-86
2022/11/22 13:40:51;;;;;;;5.85;3.95;;;;;;;;;;5068037;28;20076;-86
2022/11/22 13:44:18;;;;;;;7.40;4.60;;;;;;;;;;5057912;28;20031;-87
2022/11/22 13:54:37;;;;;;;;;;;;;;;;;;;;;
2022/11/22 13:58:12;;;;;;;7.60;3.85;;;;;;;;;;5015579;28;19956;-86
2022/11/22 14:01:04;;;;;;;;;;;;;;;;;;;;;
2022/11/22 14:04:24;;;;;;;;;;;;;;;;;;;;;
2022/11/22 14:07:03;;;;;;;4.43;3.13;;;;;;;;;;5051039;28;20388;-89
2022/11/22 14:09:39;;;;;;;7.03;3.80;;;;;;;;;;5055835;28;20087;-87
2022/11/22 14:12:46;;;;;;;8.93;5.05;;;;;;;;;;5051068;28;20028;-87
2022/11/22 14:15:43;;;;;;;5.30;3.80;;;;;;;;;;5048675;28;20163;-86
2022/11/22 14:18:21;;;;;;;4.85;4.22;;;;;;;;;;5048156;28;20489;-88
2022/11/22 14:21:02;;;;;;;6.97;4.25;;;;;;;;;;5057846;28;20032;-87
2022/11/22 14:23:55;;;;;;;6.43;4.75;;;;;;;;;;5052410;28;20032;-86
2022/11/22 14:26:46;;;;;;;11.20;5.55;;;;;;;;;;5058005;28;20187;-85
2022/11/22 14:29:33;;;;;;;9.00;5.40;;;;;;;;;;5058633;28;20028;-84
2022/11/22 14:32:12;;;;;;;8.32;4.53;;;;;;;;;;5057702;28;20071;-87
2022/11/22 14:35:04;;;;;;;6.13;3.95;;;;;;;;;;5057606;28;20024;-87
2022/11/22 14:37:30;;;;;;;10.00;5.97;;;;;;;;;;5062894;28;20522;-87
2022/11/22 14:40:08;;;;;;;5.43;4.18;;;;;;;;;;5062828;28;20044;-85
2022/11/22 14:42:36;;;;;;;8.20;5.20;;;;;;;;;;5054052;28;20021;-85
2022/11/22 14:45:15;;;;;;;8.50;6.18;;;;;;;;;;5057649;28;20078;-84
2022/11/22 14:47:56;;;;;;;10.80;6.45;;;;;;;;;;5057166;28;20385;-88
2022/11/22 14:51:00;;;;;;;13.48;7.68;;;;;;;;;;5059619;28;20306;-89
2022/11/22 14:53:32;;;;;;;13.73;6.82;;;;;;;;;;5050628;28;20082;-86
2022/11/22 14:56:13;;;;;;;19.55;6.97;;;;;;;;;;5061273;28;20103;-87
2022/11/22 14:58:48;;;;;;;7.40;4.88;;;;;;;;;;5056295;28;20021;-85
2022/11/22 15:01:44;;;;;;;4.18;3.63;;;;;;;;;;5061105;28;20017;-89
2022/11/22 15:04:18;;;;;;;8.18;3.25;;;;;;;;;;5061988;28;20059;-87
2022/11/22 15:07:19;;;;;;;4.13;2.97;;;;;;;;;;5058375;28;20036;-87
2022/11/22 15:09:54;;;;;;;5.07;3.22;;;;;;;;;;5063962;28;20033;-87
2022/11/22 15:12:44;;;;;;;4.50;3.50;;;;;;;;;;5060575;28;20095;-86
2022/11/22 15:15:18;;;;;;;;;;;;;;;;;;5065559;28;20021;-90
2022/11/22 15:17:44;;;;;;;2.67;2.03;;;;;;;;;;5062954;28;19912;-90
2022/11/22 15:20:35;;;;;;;5.18;2.83;;;;;;;;;;5054090;28;20028;-87
2022/11/22 15:23:25;;;;;;;4.28;2.85;;;;;;;;;;5059946;28;20029;-86
2022/11/22 15:26:01;;;;;;;;;;;;;;;;;;5053239;28;20040;-86
2022/11/22 15:28:26;;;;;;;3.08;1.77;;;;;;;;;;5059373;28;19913;-84
2022/11/22 15:30:56;;;;;;;4.22;2.80;;;;;;;;;;5059547;28;20028;-84
2022/11/22 15:33:33;;;;;;;2.38;2.17;;;;;;;;;;5065275;28;20031;-85
2022/11/22 15:36:37;;;;;;;4.72;2.67;;;;;;;;;;5063409;28;20047;-84
2022/11/22 15:39:03;;;;;;;5.95;2.13;;;;;;;;;;5064106;28;20090;-85
2022/11/22 15:41:30;;;;;;;3.70;1.42;;;;;;;;;;5061861;28;20116;-83
2022/11/22 15:43:59;;;;;;;2.75;1.40;;;;;;;;;;5062676;28;20060;-84
2022/11/22 15:46:26;;;;;;;3.22;2.05;;;;;;;;;;5061695;28;20425;-84